88NY weather

Zelazny Airport
Shelby, New York, United States

Public forecast

Using degrees Fahrenheit for public forecast. Weather courtesy of forecast.io.

METAR (pilot weather report)

Closest report is Buffalo Niagara International Airport, 21.0 nm (38.8 km) SW. Retrieved 2019/06/20 20:08 UTC (40 minutes ago):

KBUF 202008Z 04006KT 10SM SCT014 SCT033 OVC050 20/16 A2958

TAF (pilot weather forecast)

Closest forecast is Buffalo Niagara International Airport, 21.0 nm (38.8 km) SW. Retrieved 2019/06/20 18:45 UTC (2 hours ago):

TAF KBUF 201743Z 2018/2118 03008KT 5SM -SHRA BR OVC010 TEMPO 2020/2023 4SM -SHRA BR OVC005 FM210000 03006KT 5SM -SHRA BR SCT007 OVC015 FM210400 36006KT P6SM VCSH BKN025 FM210500 36007KT P6SM OVC015 FM210800 35006KT P6SM BKN045